sensor_id;sensor_type;location;lat;lon;timestamp;pressure;altitude;pressure_sealevel;temperature;humidity
20971;BME280;10644;48.834;10.088;2023-12-20T00:02:20;96619.91;;;9.35;60.82
20971;BME280;10644;48.834;10.088;2023-12-20T00:04:45;96611.63;;;9.30;60.93
20971;BME280;10644;48.834;10.088;2023-12-20T00:07:10;96623.44;;;9.32;60.36
20971;BME280;10644;48.834;10.088;2023-12-20T00:09:36;96610.66;;;9.32;61.00
20971;BME280;10644;48.834;10.088;2023-12-20T00:12:01;96610.28;;;9.23;61.35
20971;BME280;10644;48.834;10.088;2023-12-20T00:14:26;96604.78;;;9.13;61.83
20971;BME280;10644;48.834;10.088;2023-12-20T00:16:52;96606.00;;;9.06;61.90
20971;BME280;10644;48.834;10.088;2023-12-20T00:19:17;96601.84;;;9.21;61.40
20971;BME280;10644;48.834;10.088;2023-12-20T00:21:43;96596.50;;;9.25;61.01
20971;BME280;10644;48.834;10.088;2023-12-20T00:24:08;96595.75;;;9.40;61.29
20971;BME280;10644;48.834;10.088;2023-12-20T00:26:39;96579.09;;;9.16;61.92
20971;BME280;10644;48.834;10.088;2023-12-20T00:29:04;96584.34;;;9.13;62.51
20971;BME280;10644;48.834;10.088;2023-12-20T00:31:32;96574.88;;;9.32;61.55
20971;BME280;10644;48.834;10.088;2023-12-20T00:33:57;96554.53;;;9.46;61.43
20971;BME280;10644;48.834;10.088;2023-12-20T00:36:23;96564.34;;;9.38;62.58
20971;BME280;10644;48.834;10.088;2023-12-20T00:38:48;96561.53;;;9.43;62.05
20971;BME280;10644;48.834;10.088;2023-12-20T00:41:15;96564.94;;;9.43;62.37
20971;BME280;10644;48.834;10.088;2023-12-20T00:43:40;96569.22;;;9.43;63.05
20971;BME280;10644;48.834;10.088;2023-12-20T00:46:05;96563.19;;;9.44;62.71
20971;BME280;10644;48.834;10.088;2023-12-20T00:48:31;96556.28;;;9.46;62.66
20971;BME280;10644;48.834;10.088;2023-12-20T00:50:57;96556.81;;;9.35;63.26
20971;BME280;10644;48.834;10.088;2023-12-20T00:53:22;96563.03;;;9.47;62.93
20971;BME280;10644;48.834;10.088;2023-12-20T00:55:48;96570.53;;;9.50;63.13
20971;BME280;10644;48.834;10.088;2023-12-20T00:58:14;96576.13;;;9.41;63.34
20971;BME280;10644;48.834;10.088;2023-12-20T01:00:40;96565.63;;;9.62;62.61
20971;BME280;10644;48.834;10.088;2023-12-20T01:03:07;96560.19;;;9.68;62.67
20971;BME280;10644;48.834;10.088;2023-12-20T01:05:32;96559.47;;;9.82;62.59
20971;BME280;10644;48.834;10.088;2023-12-20T01:07:58;96543.94;;;9.69;62.58
20971;BME280;10644;48.834;10.088;2023-12-20T01:10:23;96548.13;;;9.70;62.85
20971;BME280;10644;48.834;10.088;2023-12-20T01:12:48;96556.97;;;9.80;62.68
20971;BME280;10644;48.834;10.088;2023-12-20T01:15:14;96550.69;;;9.70;63.65
20971;BME280;10644;48.834;10.088;2023-12-20T01:17:39;96554.19;;;9.85;62.72
20971;BME280;10644;48.834;10.088;2023-12-20T01:20:05;96542.78;;;9.90;63.05
20971;BME280;10644;48.834;10.088;2023-12-20T01:22:31;96568.22;;;9.93;63.36
20971;BME280;10644;48.834;10.088;2023-12-20T01:24:56;96564.94;;;10.07;62.56
20971;BME280;10644;48.834;10.088;2023-12-20T01:27:22;96565.97;;;10.04;62.57
20971;BME280;10644;48.834;10.088;2023-12-20T01:29:47;96566.56;;;9.92;62.96
20971;BME280;10644;48.834;10.088;2023-12-20T01:32:12;96561.44;;;9.92;62.92
20971;BME280;10644;48.834;10.088;2023-12-20T01:34:39;96565.34;;;9.99;62.65
20971;BME280;10644;48.834;10.088;2023-12-20T01:37:04;96569.25;;;10.06;62.73
20971;BME280;10644;48.834;10.088;2023-12-20T01:39:32;96570.28;;;10.02;62.76
20971;BME280;10644;48.834;10.088;2023-12-20T01:41:57;96568.72;;;10.00;63.10
20971;BME280;10644;48.834;10.088;2023-12-20T01:44:23;96559.72;;;9.77;63.90
20971;BME280;10644;48.834;10.088;2023-12-20T01:46:48;96566.41;;;9.80;63.85
20971;BME280;10644;48.834;10.088;2023-12-20T01:49:14;96568.56;;;9.87;63.59
20971;BME280;10644;48.834;10.088;2023-12-20T01:51:40;96581.09;;;9.92;62.91
20971;BME280;10644;48.834;10.088;2023-12-20T01:54:05;96581.09;;;9.92;63.59
20971;BME280;10644;48.834;10.088;2023-12-20T01:56:31;96579.25;;;9.78;64.75
20971;BME280;10644;48.834;10.088;2023-12-20T01:58:57;96587.44;;;9.85;63.80
20971;BME280;10644;48.834;10.088;2023-12-20T02:01:23;96582.56;;;9.80;64.15
20971;BME280;10644;48.834;10.088;2023-12-20T02:03:49;96576.69;;;9.78;64.32
20971;BME280;10644;48.834;10.088;2023-12-20T02:06:16;96576.63;;;9.80;64.08
20971;BME280;10644;48.834;10.088;2023-12-20T02:08:45;96579.59;;;9.88;64.16
20971;BME280;10644;48.834;10.088;2023-12-20T02:11:11;96587.34;;;9.86;64.38
20971;BME280;10644;48.834;10.088;2023-12-20T02:13:38;96571.19;;;9.86;63.78
20971;BME280;10644;48.834;10.088;2023-12-20T02:16:04;96573.66;;;9.87;64.27
20971;BME280;10644;48.834;10.088;2023-12-20T02:18:29;96574.16;;;9.78;64.54
20971;BME280;10644;48.834;10.088;2023-12-20T02:20:55;96571.00;;;9.73;64.60
20971;BME280;10644;48.834;10.088;2023-12-20T02:23:24;96570.16;;;9.73;64.96
20971;BME280;10644;48.834;10.088;2023-12-20T02:25:49;96562.41;;;9.74;65.04
20971;BME280;10644;48.834;10.088;2023-12-20T02:28:15;96562.75;;;9.68;65.69
20971;BME280;10644;48.834;10.088;2023-12-20T02:30:41;96565.63;;;9.62;65.87
20971;BME280;10644;48.834;10.088;2023-12-20T02:33:10;96555.97;;;9.67;65.73
20971;BME280;10644;48.834;10.088;2023-12-20T02:35:36;96567.53;;;9.74;65.65
20971;BME280;10644;48.834;10.088;2023-12-20T02:38:02;96554.47;;;9.63;65.85
20971;BME280;10644;48.834;10.088;2023-12-20T02:40:27;96551.53;;;9.71;65.42
20971;BME280;10644;48.834;10.088;2023-12-20T02:42:52;96551.53;;;9.71;65.24
20971;BME280;10644;48.834;10.088;2023-12-20T02:45:18;96555.66;;;9.73;65.13
20971;BME280;10644;48.834;10.088;2023-12-20T02:47:43;96555.56;;;9.59;66.17
20971;BME280;10644;48.834;10.088;2023-12-20T02:50:08;96557.84;;;9.48;66.81
20971;BME280;10644;48.834;10.088;2023-12-20T02:52:34;96564.47;;;9.35;67.65
20971;BME280;10644;48.834;10.088;2023-12-20T02:54:59;96568.84;;;9.33;67.88
20971;BME280;10644;48.834;10.088;2023-12-20T02:57:24;96569.25;;;9.26;68.63
20971;BME280;10644;48.834;10.088;2023-12-20T02:59:50;96565.41;;;9.17;68.91
20971;BME280;10644;48.834;10.088;2023-12-20T03:02:15;96568.72;;;9.19;68.98
20971;BME280;10644;48.834;10.088;2023-12-20T03:04:40;96555.09;;;9.03;70.24
20971;BME280;10644;48.834;10.088;2023-12-20T03:07:05;96561.69;;;8.90;70.55
20971;BME280;10644;48.834;10.088;2023-12-20T03:09:31;96555.22;;;9.00;70.53
20971;BME280;10644;48.834;10.088;2023-12-20T03:11:56;96546.03;;;8.96;70.66
20971;BME280;10644;48.834;10.088;2023-12-20T03:14:22;96560.34;;;8.83;71.41
20971;BME280;10644;48.834;10.088;2023-12-20T03:16:49;96545.63;;;8.88;71.21
20971;BME280;10644;48.834;10.088;2023-12-20T03:19:16;96557.25;;;8.77;72.17
20971;BME280;10644;48.834;10.088;2023-12-20T03:21:41;96576.50;;;8.84;71.68
20971;BME280;10644;48.834;10.088;2023-12-20T03:24:06;96563.56;;;8.87;72.17
20971;BME280;10644;48.834;10.088;2023-12-20T03:26:34;96572.88;;;8.88;71.74
20971;BME280;10644;48.834;10.088;2023-12-20T03:29:01;96578.16;;;8.85;72.49
20971;BME280;10644;48.834;10.088;2023-12-20T03:31:27;96569.22;;;8.76;72.32
20971;BME280;10644;48.834;10.088;2023-12-20T03:33:52;96565.88;;;8.74;72.81
20971;BME280;10644;48.834;10.088;2023-12-20T03:36:21;96577.47;;;8.81;72.50
20971;BME280;10644;48.834;10.088;2023-12-20T03:38:46;96570.56;;;8.83;72.76
20971;BME280;10644;48.834;10.088;2023-12-20T03:41:11;96563.56;;;8.87;72.29
20971;BME280;10644;48.834;10.088;2023-12-20T03:43:39;96560.19;;;8.86;72.18
20971;BME280;10644;48.834;10.088;2023-12-20T03:46:05;96572.06;;;8.87;72.17
20971;BME280;10644;48.834;10.088;2023-12-20T03:48:31;96580.03;;;8.98;71.98
20971;BME280;10644;48.834;10.088;2023-12-20T03:50:56;96575.00;;;8.80;72.32
20971;BME280;10644;48.834;10.088;2023-12-20T03:53:22;96583.63;;;8.77;72.24
20971;BME280;10644;48.834;10.088;2023-12-20T03:55:49;96575.06;;;8.95;71.70
20971;BME280;10644;48.834;10.088;2023-12-20T03:58:15;96569.34;;;9.07;71.22
20971;BME280;10644;48.834;10.088;2023-12-20T04:00:40;96571.88;;;9.07;71.35
20971;BME280;10644;48.834;10.088;2023-12-20T04:03:06;96560.94;;;8.71;71.92
20971;BME280;10644;48.834;10.088;2023-12-20T04:05:32;96563.63;;;8.51;72.41
20971;BME280;10644;48.834;10.088;2023-12-20T04:08:01;96567.84;;;8.52;72.80
20971;BME280;10644;48.834;10.088;2023-12-20T04:10:26;96578.06;;;8.52;72.29
20971;BME280;10644;48.834;10.088;2023-12-20T04:12:52;96589.69;;;8.58;72.19
20971;BME280;10644;48.834;10.088;2023-12-20T04:15:17;96587.25;;;8.55;72.24
20971;BME280;10644;48.834;10.088;2023-12-20T04:17:42;96592.00;;;8.62;71.11
20971;BME280;10644;48.834;10.088;2023-12-20T04:20:08;96607.25;;;8.64;70.71
20971;BME280;10644;48.834;10.088;2023-12-20T04:22:33;96602.00;;;8.50;71.51
20971;BME280;10644;48.834;10.088;2023-12-20T04:24:58;96602.47;;;8.39;71.34
20971;BME280;10644;48.834;10.088;2023-12-20T04:27:24;96617.75;;;8.22;71.33
20971;BME280;10644;48.834;10.088;2023-12-20T04:29:49;96599.81;;;8.24;71.74
20971;BME280;10644;48.834;10.088;2023-12-20T04:32:14;96619.19;;;8.28;71.82
20971;BME280;10644;48.834;10.088;2023-12-20T04:34:40;96605.97;;;8.18;72.03
20971;BME280;10644;48.834;10.088;2023-12-20T04:37:05;96621.66;;;8.11;71.48
20971;BME280;10644;48.834;10.088;2023-12-20T04:39:30;96620.13;;;7.88;72.22
20971;BME280;10644;48.834;10.088;2023-12-20T04:41:56;96606.53;;;8.06;71.89
20971;BME280;10644;48.834;10.088;2023-12-20T04:44:21;96610.00;;;8.05;72.32
20971;BME280;10644;48.834;10.088;2023-12-20T04:46:51;96609.59;;;8.14;71.75
20971;BME280;10644;48.834;10.088;2023-12-20T04:49:19;96617.63;;;8.25;72.02
20971;BME280;10644;48.834;10.088;2023-12-20T04:51:44;96603.94;;;8.26;71.39
20971;BME280;10644;48.834;10.088;2023-12-20T04:54:09;96614.28;;;8.23;71.32
20971;BME280;10644;48.834;10.088;2023-12-20T04:56:35;96620.78;;;8.30;71.57
20971;BME280;10644;48.834;10.088;2023-12-20T04:59:01;96629.03;;;8.35;70.90
20971;BME280;10644;48.834;10.088;2023-12-20T05:01:26;96637.47;;;8.37;71.12
20971;BME280;10644;48.834;10.088;2023-12-20T05:03:51;96627.44;;;8.14;72.35
20971;BME280;10644;48.834;10.088;2023-12-20T05:06:17;96633.28;;;8.16;72.23
20971;BME280;10644;48.834;10.088;2023-12-20T05:08:42;96636.53;;;8.01;72.15
20971;BME280;10644;48.834;10.088;2023-12-20T05:11:07;96644.31;;;7.98;72.49
20971;BME280;10644;48.834;10.088;2023-12-20T05:13:33;96644.88;;;8.05;73.01
20971;BME280;10644;48.834;10.088;2023-12-20T05:15:58;96647.78;;;7.97;72.47
20971;BME280;10644;48.834;10.088;2023-12-20T05:18:23;96652.31;;;8.09;72.47
20971;BME280;10644;48.834;10.088;2023-12-20T05:20:50;96658.56;;;8.22;71.78
20971;BME280;10644;48.834;10.088;2023-12-20T05:23:15;96652.44;;;8.06;71.74
20971;BME280;10644;48.834;10.088;2023-12-20T05:25:41;96648.47;;;8.19;71.97
20971;BME280;10644;48.834;10.088;2023-12-20T05:28:06;96653.16;;;8.28;71.69
20971;BME280;10644;48.834;10.088;2023-12-20T05:30:31;96650.09;;;8.22;71.63
20971;BME280;10644;48.834;10.088;2023-12-20T05:32:57;96647.31;;;8.26;71.94
20971;BME280;10644;48.834;10.088;2023-12-20T05:35:24;96648.91;;;8.29;71.82
20971;BME280;10644;48.834;10.088;2023-12-20T05:37:52;96660.34;;;8.20;71.87
20971;BME280;10644;48.834;10.088;2023-12-20T05:40:17;96671.19;;;8.05;72.47
20971;BME280;10644;48.834;10.088;2023-12-20T05:42:43;96679.63;;;8.07;72.96
20971;BME280;10644;48.834;10.088;2023-12-20T05:45:09;96672.56;;;8.12;72.11
20971;BME280;10644;48.834;10.088;2023-12-20T05:47:34;96673.81;;;8.04;72.62
20971;BME280;10644;48.834;10.088;2023-12-20T05:49:59;96673.75;;;8.25;72.04
20971;BME280;10644;48.834;10.088;2023-12-20T05:52:25;96673.19;;;8.37;71.16
20971;BME280;10644;48.834;10.088;2023-12-20T05:54:50;96686.84;;;8.36;71.75
20971;BME280;10644;48.834;10.088;2023-12-20T05:57:15;96679.94;;;8.20;71.95
20971;BME280;10644;48.834;10.088;2023-12-20T05:59:41;96678.22;;;8.20;72.02
20971;BME280;10644;48.834;10.088;2023-12-20T06:02:06;96686.97;;;8.33;72.35
20971;BME280;10644;48.834;10.088;2023-12-20T06:04:32;96681.84;;;8.33;71.70
20971;BME280;10644;48.834;10.088;2023-12-20T06:06:57;96698.53;;;8.40;71.90
20971;BME280;10644;48.834;10.088;2023-12-20T06:09:23;96700.22;;;8.23;72.28
20971;BME280;10644;48.834;10.088;2023-12-20T06:11:48;96690.13;;;8.20;72.63
20971;BME280;10644;48.834;10.088;2023-12-20T06:14:14;96713.28;;;8.15;72.97
20971;BME280;10644;48.834;10.088;2023-12-20T06:16:39;96706.22;;;8.22;73.59
20971;BME280;10644;48.834;10.088;2023-12-20T06:19:04;96712.53;;;8.32;72.99
20971;BME280;10644;48.834;10.088;2023-12-20T06:21:30;96711.50;;;8.36;72.79
20971;BME280;10644;48.834;10.088;2023-12-20T06:23:55;96710.91;;;8.49;71.87
20971;BME280;10644;48.834;10.088;2023-12-20T06:26:21;96714.81;;;8.56;72.16
20971;BME280;10644;48.834;10.088;2023-12-20T06:28:46;96711.00;;;8.65;71.05
20971;BME280;10644;48.834;10.088;2023-12-20T06:31:14;96700.06;;;8.63;71.54
20971;BME280;10644;48.834;10.088;2023-12-20T06:33:40;96703.94;;;8.53;71.54
20971;BME280;10644;48.834;10.088;2023-12-20T06:36:13;96707.50;;;8.49;72.43
20971;BME280;10644;48.834;10.088;2023-12-20T06:38:38;96695.38;;;8.35;73.04
20971;BME280;10644;48.834;10.088;2023-12-20T06:41:24;96697.72;;;8.21;73.26
20971;BME280;10644;48.834;10.088;2023-12-20T06:43:52;96711.91;;;8.45;72.69
20971;BME280;10644;48.834;10.088;2023-12-20T06:46:19;96712.53;;;8.32;73.08
20971;BME280;10644;48.834;10.088;2023-12-20T06:48:45;96721.38;;;8.43;72.90
20971;BME280;10644;48.834;10.088;2023-12-20T06:51:13;96719.09;;;8.37;72.89
20971;BME280;10644;48.834;10.088;2023-12-20T06:53:39;96728.47;;;8.37;73.00
20971;BME280;10644;48.834;10.088;2023-12-20T06:56:05;96729.59;;;8.31;73.71
20971;BME280;10644;48.834;10.088;2023-12-20T06:58:30;96734.78;;;8.48;73.27
20971;BME280;10644;48.834;10.088;2023-12-20T07:00:56;96735.66;;;8.47;74.32
20971;BME280;10644;48.834;10.088;2023-12-20T07:03:21;96734.84;;;8.65;73.68
20971;BME280;10644;48.834;10.088;2023-12-20T07:05:46;96727.22;;;8.45;73.54
20971;BME280;10644;48.834;10.088;2023-12-20T07:08:12;96739.00;;;8.29;74.57
20971;BME280;10644;48.834;10.088;2023-12-20T07:10:41;96732.94;;;8.32;74.76
20971;BME280;10644;48.834;10.088;2023-12-20T07:13:09;96736.81;;;8.40;74.11
20971;BME280;10644;48.834;10.088;2023-12-20T07:15:34;96748.34;;;8.49;73.99
20971;BME280;10644;48.834;10.088;2023-12-20T07:18:03;96743.94;;;8.52;73.77
20971;BME280;10644;48.834;10.088;2023-12-20T07:20:31;96750.97;;;8.47;73.25
20971;BME280;10644;48.834;10.088;2023-12-20T07:22:56;96759.38;;;8.49;73.92
20971;BME280;10644;48.834;10.088;2023-12-20T07:25:22;96772.22;;;8.48;73.74
20971;BME280;10644;48.834;10.088;2023-12-20T07:27:47;96758.13;;;8.39;73.85
20971;BME280;10644;48.834;10.088;2023-12-20T07:30:21;96767.34;;;8.62;73.55
20971;BME280;10644;48.834;10.088;2023-12-20T07:32:49;96768.28;;;8.59;73.27
20971;BME280;10644;48.834;10.088;2023-12-20T07:35:15;96772.50;;;8.60;74.10
20971;BME280;10644;48.834;10.088;2023-12-20T07:37:43;96772.22;;;8.66;74.19
20971;BME280;10644;48.834;10.088;2023-12-20T07:40:12;96784.09;;;8.67;73.99
20971;BME280;10644;48.834;10.088;2023-12-20T07:43:03;96781.47;;;8.50;74.41
20971;BME280;10644;48.834;10.088;2023-12-20T07:45:52;96785.47;;;8.56;73.39
20971;BME280;10644;48.834;10.088;2023-12-20T07:48:17;96778.56;;;8.76;73.29
20971;BME280;10644;48.834;10.088;2023-12-20T07:50:51;96780.91;;;8.81;73.06
20971;BME280;10644;48.834;10.088;2023-12-20T07:53:22;96783.88;;;8.72;73.49
20971;BME280;10644;48.834;10.088;2023-12-20T07:55:47;96768.66;;;8.70;73.28
20971;BME280;10644;48.834;10.088;2023-12-20T07:58:20;96788.09;;;8.54;73.46
20971;BME280;10644;48.834;10.088;2023-12-20T08:00:48;96789.16;;;8.49;73.95
20971;BME280;10644;48.834;10.088;2023-12-20T08:03:13;96784.50;;;8.58;73.54
20971;BME280;10644;48.834;10.088;2023-12-20T08:05:44;96792.91;;;8.60;73.82
20971;BME280;10644;48.834;10.088;2023-12-20T08:08:10;96786.50;;;8.52;73.97
20971;BME280;10644;48.834;10.088;2023-12-20T08:10:35;96793.69;;;8.81;72.86
20971;BME280;10644;48.834;10.088;2023-12-20T08:13:01;96802.31;;;8.78;73.08
20971;BME280;10644;48.834;10.088;2023-12-20T08:15:35;96792.97;;;8.59;73.69
20971;BME280;10644;48.834;10.088;2023-12-20T08:18:14;96800.59;;;8.60;73.82
20971;BME280;10644;48.834;10.088;2023-12-20T08:20:39;96794.22;;;8.50;73.92
20971;BME280;10644;48.834;10.088;2023-12-20T08:23:18;96804.78;;;8.61;73.63
20971;BME280;10644;48.834;10.088;2023-12-20T08:25:46;96799.00;;;8.76;73.34
20971;BME280;10644;48.834;10.088;2023-12-20T08:28:28;96796.56;;;8.73;73.63
20971;BME280;10644;48.834;10.088;2023-12-20T08:30:54;96787.94;;;8.57;73.93
20971;BME280;10644;48.834;10.088;2023-12-20T08:33:46;96810.31;;;8.71;73.71
20971;BME280;10644;48.834;10.088;2023-12-20T08:36:26;96812.41;;;8.81;73.59
20971;BME280;10644;48.834;10.088;2023-12-20T08:38:52;96816.88;;;8.76;73.28
20971;BME280;10644;48.834;10.088;2023-12-20T08:41:25;96815.97;;;8.77;73.13
20971;BME280;10644;48.834;10.088;2023-12-20T08:43:58;96833.56;;;8.83;73.41
20971;BME280;10644;48.834;10.088;2023-12-20T08:46:31;96834.06;;;8.73;73.51
20971;BME280;10644;48.834;10.088;2023-12-20T08:49:02;96831.69;;;8.68;73.21
20971;BME280;10644;48.834;10.088;2023-12-20T08:52:04;96825.88;;;8.46;73.91
20971;BME280;10644;48.834;10.088;2023-12-20T08:54:34;96830.97;;;8.46;74.26
20971;BME280;10644;48.834;10.088;2023-12-20T08:57:15;96807.41;;;8.41;73.26
20971;BME280;10644;48.834;10.088;2023-12-20T09:06:42;96815.38;;;8.34;73.69
20971;BME280;10644;48.834;10.088;2023-12-20T09:09:10;96827.41;;;8.50;73.43
20971;BME280;10644;48.834;10.088;2023-12-20T09:12:11;96830.19;;;8.64;72.83
20971;BME280;10644;48.834;10.088;2023-12-20T09:14:36;96816.22;;;8.53;73.45
20971;BME280;10644;48.834;10.088;2023-12-20T09:17:20;96802.66;;;8.52;72.77
20971;BME280;10644;48.834;10.088;2023-12-20T09:19:56;96826.31;;;8.56;72.48
20971;BME280;10644;48.834;10.088;2023-12-20T09:22:33;96845.31;;;8.87;71.80
20971;BME280;10644;48.834;10.088;2023-12-20T09:25:05;96834.47;;;8.82;71.38
20971;BME280;10644;48.834;10.088;2023-12-20T09:27:41;96846.13;;;8.88;70.59
20971;BME280;10644;48.834;10.088;2023-12-20T09:30:07;96836.53;;;8.74;70.91
20971;BME280;10644;48.834;10.088;2023-12-20T09:32:41;96850.50;;;8.86;70.28
20971;BME280;10644;48.834;10.088;2023-12-20T09:35:16;96830.88;;;8.68;69.41
20971;BME280;10644;48.834;10.088;2023-12-20T09:37:44;96838.22;;;8.75;69.65
20971;BME280;10644;48.834;10.088;2023-12-20T09:40:13;96825.97;;;8.82;70.47
20971;BME280;10644;48.834;10.088;2023-12-20T09:42:54;96844.34;;;9.08;70.64
20971;BME280;10644;48.834;10.088;2023-12-20T09:45:21;96837.09;;;8.99;69.62
20971;BME280;10644;48.834;10.088;2023-12-20T09:47:58;96822.75;;;8.97;68.82
20971;BME280;10644;48.834;10.088;2023-12-20T09:50:26;96838.75;;;9.00;69.30
20971;BME280;10644;48.834;10.088;2023-12-20T09:52:53;96829.91;;;9.07;68.99
20971;BME280;10644;48.834;10.088;2023-12-20T09:55:19;96839.56;;;9.19;68.23
20971;BME280;10644;48.834;10.088;2023-12-20T09:58:05;96823.81;;;8.91;69.29
20971;BME280;10644;48.834;10.088;2023-12-20T10:00:37;96839.09;;;9.11;69.15
20971;BME280;10644;48.834;10.088;2023-12-20T10:03:32;96837.63;;;9.24;68.87
20971;BME280;10644;48.834;10.088;2023-12-20T10:06:01;96848.41;;;9.12;68.84
20971;BME280;10644;48.834;10.088;2023-12-20T10:12:14;96840.38;;;8.26;67.29
20971;BME280;10644;48.834;10.088;2023-12-20T10:17:38;96824.03;;;7.90;68.70
20971;BME280;10644;48.834;10.088;2023-12-20T10:20:06;96829.84;;;7.93;69.76
20971;BME280;10644;48.834;10.088;2023-12-20T10:22:37;96829.94;;;7.90;70.06
20971;BME280;10644;48.834;10.088;2023-12-20T10:25:09;96820.34;;;7.97;69.80
20971;BME280;10644;48.834;10.088;2023-12-20T10:28:25;96828.19;;;8.32;69.32
20971;BME280;10644;48.834;10.088;2023-12-20T10:34:14;96816.16;;;8.54;69.28
20971;BME280;10644;48.834;10.088;2023-12-20T10:37:15;96822.63;;;8.81;68.20
20971;BME280;10644;48.834;10.088;2023-12-20T10:39:52;96813.28;;;8.80;67.68
20971;BME280;10644;48.834;10.088;2023-12-20T10:42:35;96808.38;;;8.94;67.42
20971;BME280;10644;48.834;10.088;2023-12-20T10:45:29;96828.41;;;8.85;66.59
20971;BME280;10644;48.834;10.088;2023-12-20T10:48:02;96832.19;;;8.76;66.24
20971;BME280;10644;48.834;10.088;2023-12-20T10:50:30;96826.25;;;8.76;67.14
20971;BME280;10644;48.834;10.088;2023-12-20T10:52:59;96819.44;;;8.76;66.71
20971;BME280;10644;48.834;10.088;2023-12-20T10:56:02;96804.16;;;8.56;66.37
20971;BME280;10644;48.834;10.088;2023-12-20T11:01:32;96814.03;;;8.82;65.79
20971;BME280;10644;48.834;10.088;2023-12-20T11:04:06;96810.31;;;9.08;65.67
20971;BME280;10644;48.834;10.088;2023-12-20T11:06:53;96817.63;;;8.97;65.51
20971;BME280;10644;48.834;10.088;2023-12-20T11:09:34;96797.41;;;8.92;65.03
20971;BME280;10644;48.834;10.088;2023-12-20T11:12:58;96790.84;;;8.87;65.78
20971;BME280;10644;48.834;10.088;2023-12-20T11:15:37;96804.94;;;8.95;65.48
20971;BME280;10644;48.834;10.088;2023-12-20T11:18:04;96802.88;;;9.03;65.83
20971;BME280;10644;48.834;10.088;2023-12-20T11:20:41;96798.78;;;9.18;65.10
20971;BME280;10644;48.834;10.088;2023-12-20T11:23:10;96787.81;;;9.33;64.56
20971;BME280;10644;48.834;10.088;2023-12-20T11:28:14;96795.69;;;9.28;64.57
20971;BME280;10644;48.834;10.088;2023-12-20T11:30:52;96802.69;;;9.25;64.50
20971;BME280;10644;48.834;10.088;2023-12-20T11:33:36;96778.31;;;9.18;64.09
20971;BME280;10644;48.834;10.088;2023-12-20T11:36:43;96784.88;;;9.05;63.79
20971;BME280;10644;48.834;10.088;2023-12-20T11:39:22;96779.09;;;9.01;63.14
20971;BME280;10644;48.834;10.088;2023-12-20T11:48:24;96775.25;;;8.37;61.21
20971;BME280;10644;48.834;10.088;2023-12-20T11:50:50;96779.03;;;8.29;62.00
20971;BME280;10644;48.834;10.088;2023-12-20T11:53:39;96777.94;;;8.14;61.15
20971;BME280;10644;48.834;10.088;2023-12-20T11:56:29;96782.13;;;8.35;61.88
20971;BME280;10644;48.834;10.088;2023-12-20T11:58:57;96781.59;;;8.66;60.92
20971;BME280;10644;48.834;10.088;2023-12-20T12:01:27;96775.31;;;8.54;59.73
20971;BME280;10644;48.834;10.088;2023-12-20T12:04:11;96776.31;;;8.70;60.53
20971;BME280;10644;48.834;10.088;2023-12-20T12:06:39;96769.72;;;8.83;59.74
20971;BME280;10644;48.834;10.088;2023-12-20T12:09:07;96766.00;;;8.90;59.57
20971;BME280;10644;48.834;10.088;2023-12-20T12:11:41;96762.00;;;8.66;59.75
20971;BME280;10644;48.834;10.088;2023-12-20T12:14:07;96769.72;;;8.65;59.68
20971;BME280;10644;48.834;10.088;2023-12-20T12:16:33;96767.53;;;8.57;60.02
20971;BME280;10644;48.834;10.088;2023-12-20T12:19:01;96768.78;;;8.67;60.00
20971;BME280;10644;48.834;10.088;2023-12-20T12:21:36;96781.31;;;8.72;60.24
20971;BME280;10644;48.834;10.088;2023-12-20T12:24:09;96766.00;;;8.72;59.68
20971;BME280;10644;48.834;10.088;2023-12-20T12:26:37;96771.38;;;8.84;59.28
20971;BME280;10644;48.834;10.088;2023-12-20T12:32:43;96756.63;;;8.72;59.55
20971;BME280;10644;48.834;10.088;2023-12-20T12:35:14;96764.38;;;8.52;58.54
20971;BME280;10644;48.834;10.088;2023-12-20T12:38:10;96775.25;;;8.74;59.72
20971;BME280;10644;48.834;10.088;2023-12-20T12:40:46;96759.13;;;8.74;57.69
20971;BME280;10644;48.834;10.088;2023-12-20T12:43:14;96775.19;;;8.57;58.82
20971;BME280;10644;48.834;10.088;2023-12-20T12:45:47;96769.31;;;8.55;58.49
20971;BME280;10644;48.834;10.088;2023-12-20T12:48:14;96758.81;;;8.24;59.15
20971;BME280;10644;48.834;10.088;2023-12-20T12:50:45;96765.69;;;8.22;59.45
20971;BME280;10644;48.834;10.088;2023-12-20T12:53:31;96761.44;;;8.23;59.38
20971;BME280;10644;48.834;10.088;2023-12-20T12:56:00;96758.28;;;8.36;59.69
20971;BME280;10644;48.834;10.088;2023-12-20T12:58:28;96746.16;;;8.41;59.77
20971;BME280;10644;48.834;10.088;2023-12-20T13:00:53;96773.34;;;8.61;59.95
20971;BME280;10644;48.834;10.088;2023-12-20T13:03:22;96770.84;;;8.59;59.11
20971;BME280;10644;48.834;10.088;2023-12-20T13:05:53;96767.28;;;8.25;58.94
20971;BME280;10644;48.834;10.088;2023-12-20T13:08:21;96763.97;;;8.03;60.43
20971;BME280;10644;48.834;10.088;2023-12-20T13:10:46;96762.81;;;8.10;60.02
20971;BME280;10644;48.834;10.088;2023-12-20T13:13:11;96762.81;;;8.10;60.49
20971;BME280;10644;48.834;10.088;2023-12-20T13:15:37;96756.47;;;8.20;61.01
20971;BME280;10644;48.834;10.088;2023-12-20T13:18:02;96758.28;;;8.36;60.28
20971;BME280;10644;48.834;10.088;2023-12-20T13:20:29;96760.28;;;8.48;59.28
20971;BME280;10644;48.834;10.088;2023-12-20T13:22:57;96758.44;;;8.52;59.26
20971;BME280;10644;48.834;10.088;2023-12-20T13:25:25;96756.16;;;8.46;59.54
20971;BME280;10644;48.834;10.088;2023-12-20T13:27:51;96753.16;;;8.55;59.02
20971;BME280;10644;48.834;10.088;2023-12-20T13:30:17;96740.97;;;8.61;58.85
20971;BME280;10644;48.834;10.088;2023-12-20T13:32:42;96748.34;;;8.67;58.05
20971;BME280;10644;48.834;10.088;2023-12-20T13:35:08;96738.56;;;8.58;58.05
20971;BME280;10644;48.834;10.088;2023-12-20T13:37:36;96748.78;;;8.58;58.33
20971;BME280;10644;48.834;10.088;2023-12-20T13:40:09;96743.66;;;8.40;58.40
20971;BME280;10644;48.834;10.088;2023-12-20T13:42:57;96746.59;;;8.31;58.68
20971;BME280;10644;48.834;10.088;2023-12-20T13:45:25;96751.78;;;8.29;58.93